Time;durP1;ratioP1;P1;durP2;ratioP2;P2;SDS_P1;SDS_P2;PMS_P1;PMS_P2;Temp;Humidity;BMP_temperature;BMP_pressure;BME280_temperature;BME280_humidity;BME280_pressure;Samples;Min_cycle;Max_cycle;Signal;HPM_P1;HPM_P2
2022/08/15 00:01:36;;;;;;;7.87;4.10;;;;;;;20.47;95.81;98339.75;4915038;29;20208;-58
2022/08/15 00:04:07;;;;;;;7.60;4.17;;;;;;;20.39;95.94;98332.94;4915272;29;20207;-65
2022/08/15 00:06:39;;;;;;;7.10;4.50;;;;;;;20.37;96.81;98337.50;4915177;29;20303;-66
2022/08/15 00:09:10;;;;;;;6.17;4.10;;;;;;;20.38;97.50;98339.09;4915505;29;20278;-58
2022/08/15 00:11:42;;;;;;;6.40;4.17;;;;;;;20.42;97.31;98336.91;4915024;29;20218;-58
2022/08/15 00:14:13;;;;;;;7.93;4.93;;;;;;;20.37;97.69;98334.13;4915179;29;20246;-65
2022/08/15 00:16:42;;;;;;;7.63;4.57;;;;;;;20.41;98.16;98341.31;4915069;29;20631;-65
2022/08/15 00:19:11;;;;;;;7.27;4.50;;;;;;;20.40;97.87;98337.13;4914436;29;20203;-66
2022/08/15 00:21:44;;;;;;;6.33;4.30;;;;;;;20.33;98.24;98344.88;4915488;29;20208;-66
2022/08/15 00:24:11;;;;;;;7.77;4.47;;;;;;;20.31;98.45;98338.28;4914782;29;20261;-67
2022/08/15 00:26:40;;;;;;;6.87;4.60;;;;;;;20.27;99.00;98350.03;4915463;29;20213;-57
2022/08/15 00:29:07;;;;;;;8.60;4.63;;;;;;;20.23;99.60;98341.03;4914666;29;20240;-58
2022/08/15 00:31:35;;;;;;;9.07;4.43;;;;;;;20.17;99.09;98339.19;4914672;29;20199;-65
2022/08/15 00:34:03;;;;;;;7.40;4.60;;;;;;;20.17;99.78;98344.38;4914791;29;20237;-65
2022/08/15 00:36:30;;;;;;;6.07;4.53;;;;;;;20.11;99.55;98341.56;4914635;29;20208;-68
2022/08/15 00:38:58;;;;;;;6.40;4.17;;;;;;;20.06;99.76;98343.13;4914619;29;20610;-57
2022/08/15 00:41:41;;;;;;;6.00;4.17;;;;;;;20.13;99.79;98344.78;4914476;29;20214;-58
2022/08/15 00:44:16;;;;;;;7.00;4.77;;;;;;;20.17;100.00;98339.19;4914989;29;20218;-60
2022/08/15 00:46:45;;;;;;;7.80;4.57;;;;;;;20.16;100.00;98345.38;4914408;29;20260;-60
2022/08/15 00:49:13;;;;;;;7.87;5.07;;;;;;;20.05;100.00;98347.50;4914384;29;20200;-57
2022/08/15 00:51:47;;;;;;;7.27;4.43;;;;;;;20.07;100.00;98349.91;4914643;29;20211;-57
2022/08/15 00:54:19;;;;;;;7.40;4.63;;;;;;;19.94;100.00;98344.63;4914188;29;20244;-58
2022/08/15 00:56:49;;;;;;;6.10;3.87;;;;;;;19.95;100.00;98341.03;4914443;29;20696;-59
2022/08/15 00:59:23;;;;;;;9.30;4.87;;;;;;;19.96;100.00;98343.47;4914214;29;20272;-68
2022/08/15 01:01:51;;;;;;;7.70;4.67;;;;;;;19.95;100.00;98341.03;4914084;29;20263;-63
2022/08/15 01:04:19;;;;;;;7.27;4.93;;;;;;;19.97;100.00;98334.69;4913891;29;20684;-65
2022/08/15 01:06:47;;;;;;;5.77;4.10;;;;;;;19.92;100.00;98342.22;4913907;29;20215;-65
2022/08/15 01:09:15;;;;;;;7.77;4.67;;;;;;;19.94;100.00;98337.66;4914078;29;20596;-67
2022/08/15 01:11:49;;;;;;;6.43;4.50;;;;;;;19.89;100.00;98337.41;4914067;29;20196;-67
2022/08/15 01:14:17;;;;;;;5.80;3.97;;;;;;;19.85;100.00;98336.19;4913939;29;20247;-65
2022/08/15 01:16:45;;;;;;;6.13;4.20;;;;;;;19.81;100.00;98333.19;4913877;29;20672;-66
2022/08/15 01:19:16;;;;;;;7.77;4.40;;;;;;;19.79;100.00;98332.56;4914239;29;20209;-67
2022/08/15 01:22:14;;;;;;;5.87;4.00;;;;;;;19.78;100.00;98330.13;4913824;29;20209;-67
2022/08/15 01:24:52;;;;;;;6.00;3.97;;;;;;;19.75;100.00;98326.16;4888616;29;20599;-57
2022/08/15 01:27:21;;;;;;;7.60;4.27;;;;;;;19.79;100.00;98331.75;4913661;29;20202;-57
2022/08/15 01:29:50;;;;;;;7.20;4.77;;;;;;;19.79;100.00;98327.38;4913733;29;20255;-64
2022/08/15 01:32:17;;;;;;;6.63;4.10;;;;;;;19.85;100.00;98336.19;4913226;29;20294;-57
2022/08/15 01:34:43;;;;;;;5.23;4.03;;;;;;;19.83;100.00;98327.78;4913410;29;20235;-57
2022/08/15 01:37:11;;;;;;;7.40;4.27;;;;;;;19.82;100.00;98326.19;4913825;29;20206;-59
2022/08/15 01:39:46;;;;;;;6.10;4.17;;;;;;;19.81;100.00;98324.56;4913882;29;20738;-59
2022/08/15 01:42:19;;;;;;;6.97;4.40;;;;;;;19.86;100.00;98330.00;4913682;29;20201;-59
2022/08/15 01:44:51;;;;;;;7.23;4.30;;;;;;;19.87;100.00;98334.22;4913435;29;20232;-59
2022/08/15 01:47:23;;;;;;;5.37;3.83;;;;;;;19.86;100.00;98328.19;4913579;29;20210;-66
2022/08/15 01:49:59;;;;;;;6.57;4.07;;;;;;;19.87;100.00;98329.03;4913306;29;20319;-67
2022/08/15 01:52:30;;;;;;;7.27;3.87;;;;;;;19.83;100.00;98320.81;4913431;29;20237;-66
2022/08/15 01:54:59;;;;;;;6.07;3.90;;;;;;;19.84;100.00;98319.84;4913165;29;20449;-66
2022/08/15 01:57:28;;;;;;;6.17;4.10;;;;;;;19.83;100.00;98328.59;4913662;29;20201;-66
2022/08/15 01:59:57;;;;;;;6.50;3.93;;;;;;;19.86;100.00;98330.00;4913332;29;20235;-66
2022/08/15 02:02:25;;;;;;;7.20;4.10;;;;;;;19.86;100.00;98332.59;4913333;29;20214;-59
2022/08/15 02:04:52;;;;;;;8.70;3.80;;;;;;;19.90;100.00;98328.66;4913301;29;20226;-59
2022/08/15 02:07:24;;;;;;;5.77;3.97;;;;;;;19.89;100.00;98337.41;4913146;29;20221;-59
2022/08/15 02:09:51;;;;;;;5.20;3.37;;;;;;;19.87;100.00;98337.59;4912961;29;20734;-59
2022/08/15 02:12:21;;;;;;;7.00;3.63;;;;;;;19.85;100.00;98338.78;4913110;29;20768;-59
2022/08/15 02:14:49;;;;;;;5.23;3.77;;;;;;;19.85;100.00;98337.00;4912998;29;20659;-59
2022/08/15 02:17:17;;;;;;;6.37;3.83;;;;;;;19.84;100.00;98332.00;4913319;29;20206;-59
2022/08/15 02:19:48;;;;;;;5.70;3.77;;;;;;;19.84;100.00;98339.78;4912951;29;20273;-59
2022/08/15 02:22:15;;;;;;;5.83;3.43;;;;;;;19.80;100.00;98334.16;4913322;29;20208;-59
2022/08/15 02:24:42;;;;;;;6.63;4.10;;;;;;;19.83;100.00;98338.16;4912997;29;20614;-59
2022/08/15 02:27:11;;;;;;;5.70;3.67;;;;;;;19.80;100.00;98328.16;4912996;29;20202;-59
2022/08/15 02:29:38;;;;;;;5.67;3.57;;;;;;;19.81;100.00;98334.94;4913040;29;20796;-59
2022/08/15 02:32:12;;;;;;;5.37;3.63;;;;;;;19.82;100.00;98333.97;4912959;29;20207;-59
2022/08/15 02:34:39;;;;;;;5.13;3.37;;;;;;;19.76;100.00;98338.13;4913066;29;20239;-66
2022/08/15 02:37:08;;;;;;;4.93;3.43;;;;;;;19.71;100.00;98335.28;4912929;29;20209;-66
2022/08/15 02:39:35;;;;;;;5.47;3.70;;;;;;;19.72;100.00;98338.69;4913097;29;20226;-66
2022/08/15 02:42:03;;;;;;;6.00;3.97;;;;;;;19.74;100.00;98341.88;4913349;29;20219;-66
2022/08/15 02:44:30;;;;;;;6.87;3.70;;;;;;;19.72;100.00;98341.25;4916664;29;20230;-66
2022/08/15 02:46:58;;;;;;;6.03;3.67;;;;;;;19.73;100.00;98337.69;4916681;29;20202;-59
2022/08/15 02:49:26;;;;;;;5.67;3.70;;;;;;;19.73;100.00;98342.88;4916618;29;20247;-59
2022/08/15 02:51:53;;;;;;;6.00;3.90;;;;;;;19.74;100.00;98334.91;4916591;29;20230;-65
2022/08/15 02:54:26;;;;;;;5.93;3.53;;;;;;;19.72;100.00;98336.88;4916485;29;20248;-66
2022/08/15 02:56:53;;;;;;;6.20;4.00;;;;;;;19.66;100.00;98337.63;4916461;29;20707;-65
2022/08/15 02:59:20;;;;;;;4.93;3.67;;;;;;;19.67;100.00;98340.06;4916312;29;20314;-66
2022/08/15 03:01:47;;;;;;;5.87;3.90;;;;;;;19.70;100.00;98345.84;4916326;29;20206;-66
2022/08/15 03:04:19;;;;;;;5.67;3.40;;;;;;;19.68;100.00;98346.84;4916274;29;20294;-59
2022/08/15 03:06:47;;;;;;;6.33;3.70;;;;;;;19.67;100.00;98352.22;4916405;29;20211;-59
2022/08/15 03:09:16;;;;;;;5.37;3.60;;;;;;;19.63;100.00;98349.19;4916301;29;20210;-58
2022/08/15 03:11:44;;;;;;;5.00;3.53;;;;;;;19.57;100.00;98355.06;4916329;29;20220;-59
2022/08/15 03:14:22;;;;;;;4.80;3.53;;;;;;;19.54;100.00;98355.44;4915960;29;20232;-59
2022/08/15 03:16:50;;;;;;;4.57;3.10;;;;;;;19.48;100.00;98356.19;4916080;29;20213;-58
2022/08/15 03:19:20;;;;;;;5.27;3.20;;;;;;;19.49;100.00;98359.59;4915910;29;20210;-58
2022/08/15 03:21:49;;;;;;;4.67;3.00;;;;;;;19.52;100.00;98362.63;4915945;29;20223;-58
2022/08/15 03:24:17;;;;;;;5.20;3.20;;;;;;;19.52;100.00;98367.81;4915922;29;20210;-58
2022/08/15 03:26:46;;;;;;;4.77;3.13;;;;;;;19.50;100.00;98369.78;4915818;29;20213;-58
2022/08/15 03:29:15;;;;;;;4.90;3.10;;;;;;;19.53;100.00;98369.41;4915910;29;20198;-58
2022/08/15 03:31:43;;;;;;;4.83;3.20;;;;;;;19.54;100.00;98371.00;4916328;29;20677;-66
2022/08/15 03:34:10;;;;;;;4.43;3.03;;;;;;;19.59;100.00;98376.44;4915627;29;20212;-66
2022/08/15 03:36:40;;;;;;;4.50;3.37;;;;;;;19.58;100.00;98382.63;4915905;29;20211;-58
2022/08/15 03:39:08;;;;;;;6.60;3.53;;;;;;;19.53;100.00;98374.59;4915545;29;20245;-58
2022/08/15 03:41:35;;;;;;;5.23;3.27;;;;;;;19.58;100.00;98382.63;4916014;29;20220;-59
2022/08/15 03:44:02;;;;;;;5.90;3.47;;;;;;;19.58;100.00;98387.81;4915442;29;20211;-58
2022/08/15 03:46:29;;;;;;;5.63;3.30;;;;;;;19.61;100.00;98387.44;4916174;29;20209;-58
2022/08/15 03:48:57;;;;;;;5.43;3.07;;;;;;;19.58;100.00;98387.03;4915588;29;20207;-58
2022/08/15 03:51:26;;;;;;;4.43;3.27;;;;;;;19.55;100.00;98397.78;4915603;29;20282;-58
2022/08/15 03:53:55;;;;;;;4.87;3.17;;;;;;;19.58;100.00;98395.59;4914416;29;20688;-58
2022/08/15 03:56:26;;;;;;;4.63;3.33;;;;;;;19.59;100.00;98397.19;4915256;29;20241;-58
2022/08/15 03:58:55;;;;;;;4.90;3.10;;;;;;;19.62;100.00;98404.59;4915402;29;20229;-66
2022/08/15 04:01:25;;;;;;;5.40;3.30;;;;;;;19.66;100.00;98400.69;4915216;29;20221;-66
2022/08/15 04:03:52;;;;;;;4.50;3.07;;;;;;;19.70;100.00;98397.72;4914929;29;20206;-58
2022/08/15 04:06:22;;;;;;;5.70;3.70;;;;;;;19.65;100.00;98399.06;4915054;29;20245;-58
2022/08/15 04:08:50;;;;;;;5.40;3.27;;;;;;;19.72;100.00;98403.50;4915033;29;20263;-66
2022/08/15 04:11:19;;;;;;;5.53;3.30;;;;;;;19.75;100.00;98403.13;4915042;29;20225;-58
2022/08/15 04:13:48;;;;;;;4.10;2.90;;;;;;;19.77;100.00;98406.34;4915063;29;20217;-58
2022/08/15 04:16:15;;;;;;;4.67;3.30;;;;;;;19.81;100.00;98398.03;4914943;29;20719;-66
2022/08/15 04:18:42;;;;;;;3.47;2.80;;;;;;;19.83;100.00;98398.63;4915100;29;20216;-65
2022/08/15 04:21:12;;;;;;;5.07;3.17;;;;;;;19.86;100.00;98394.84;4915112;29;20246;-66
2022/08/15 04:23:41;;;;;;;5.23;3.50;;;;;;;19.90;100.00;98393.50;4914993;29;20210;-58
2022/08/15 04:26:08;;;;;;;5.00;3.70;;;;;;;19.96;100.00;98397.94;4914836;29;20231;-58
2022/08/15 04:28:35;;;;;;;5.03;3.10;;;;;;;19.95;100.00;98388.53;4914649;29;20221;-58
2022/08/15 04:31:06;;;;;;;5.80;3.63;;;;;;;20.03;100.00;98395.41;4914777;29;20231;-58
2022/08/15 04:33:34;;;;;;;5.73;3.57;;;;;;;20.07;100.00;98387.06;4914606;29;20700;-66
2022/08/15 04:36:04;;;;;;;6.13;3.10;;;;;;;20.15;100.00;98398.28;4914643;29;20240;-66
2022/08/15 04:38:32;;;;;;;5.63;3.53;;;;;;;20.19;100.00;98394.28;4914857;29;20199;-66
2022/08/15 04:40:59;;;;;;;5.30;3.33;;;;;;;20.23;100.00;98400.72;4914505;29;20713;-58
2022/08/15 04:43:26;;;;;;;4.90;3.53;;;;;;;20.27;100.00;98401.94;4914459;29;20655;-58
2022/08/15 04:45:53;;;;;;;4.97;3.37;;;;;;;20.32;100.00;98397.78;4914566;29;20234;-66
2022/08/15 04:48:22;;;;;;;5.87;3.53;;;;;;;20.39;100.00;98408.22;4914761;29;20217;-58
2022/08/15 04:50:51;;;;;;;6.03;3.37;;;;;;;20.42;100.00;98396.63;4914458;29;20787;-58
2022/08/15 04:53:20;;;;;;;5.63;3.43;;;;;;;20.47;99.84;98404.66;4914402;29;20585;-66
2022/08/15 04:55:48;;;;;;;6.10;3.57;;;;;;;20.51;99.56;98401.50;4914126;29;20679;-66
2022/08/15 04:58:17;;;;;;;6.30;3.93;;;;;;;20.57;99.82;98408.56;4914345;29;20203;-59
2022/08/15 05:00:49;;;;;;;7.20;3.80;;;;;;;20.62;99.32;98404.56;4914213;29;20238;-58
2022/08/15 05:03:19;;;;;;;5.43;3.53;;;;;;;20.69;99.06;98410.63;4913996;29;20208;-58
2022/08/15 05:05:51;;;;;;;8.97;3.80;;;;;;;20.69;98.71;98411.41;4914046;29;20248;-58
2022/08/15 05:08:19;;;;;;;5.23;3.40;;;;;;;20.77;98.57;98400.06;4914169;29;20744;-58
2022/08/15 05:10:51;;;;;;;3.87;3.07;;;;;;;20.76;98.69;98401.06;4914274;29;20240;-58
2022/08/15 05:13:20;;;;;;;5.33;3.67;;;;;;;20.86;98.60;98405.91;4913994;29;20231;-58
2022/08/15 05:15:49;;;;;;;4.87;3.20;;;;;;;20.90;98.80;98409.72;4913751;29;20243;-58
2022/08/15 05:18:17;;;;;;;5.87;3.57;;;;;;;20.90;98.73;98405.31;4913899;29;20207;-66
2022/08/15 05:20:44;;;;;;;4.50;3.37;;;;;;;20.90;99.02;98405.31;4913916;29;20224;-66
2022/08/15 05:23:15;;;;;;;4.90;3.50;;;;;;;20.91;98.61;98406.91;4913950;29;20270;-66
2022/08/15 05:25:44;;;;;;;5.17;3.53;;;;;;;20.93;97.73;98401.53;4913753;29;20232;-58
2022/08/15 05:28:13;;;;;;;5.40;3.40;;;;;;;20.92;96.58;98405.94;4913815;29;20202;-58
2022/08/15 05:30:40;;;;;;;4.10;3.20;;;;;;;20.92;95.84;98405.94;4914010;29;20227;-66
2022/08/15 05:33:11;;;;;;;5.10;3.23;;;;;;;21.01;95.65;98402.16;4913608;29;20223;-66
2022/08/15 05:35:41;;;;;;;4.40;3.23;;;;;;;20.97;95.09;98400.97;4914010;29;20646;-59
2022/08/15 05:38:14;;;;;;;5.97;3.40;;;;;;;20.94;94.59;98398.75;4913850;29;20273;-66
2022/08/15 05:40:51;;;;;;;6.43;3.83;;;;;;;21.03;94.66;98402.78;4913832;29;20621;-66
2022/08/15 05:43:32;;;;;;;5.63;3.73;;;;;;;21.07;95.02;98407.59;4913572;29;20210;-58
2022/08/15 05:46:01;;;;;;;5.03;3.43;;;;;;;21.13;94.98;98406.81;4913760;29;20224;-58
2022/08/15 05:48:32;;;;;;;6.17;3.77;;;;;;;21.22;95.19;98405.63;4913367;29;20198;-58
2022/08/15 05:51:09;;;;;;;5.43;3.33;;;;;;;21.19;94.30;98411.22;4913295;29;20231;-66
2022/08/15 05:53:51;;;;;;;6.10;3.37;;;;;;;21.31;94.70;98412.25;4913609;29;20230;-66
2022/08/15 05:56:29;;;;;;;5.03;3.47;;;;;;;21.39;95.02;98406.91;4913550;29;20246;-58
2022/08/15 05:59:02;;;;;;;7.13;4.10;;;;;;;21.40;96.14;98403.28;4913360;29;20206;-59
2022/08/15 06:01:34;;;;;;;5.53;4.00;;;;;;;21.59;95.47;98406.13;4913492;29;20585;-58
2022/08/15 06:04:07;;;;;;;5.57;3.70;;;;;;;22.06;97.65;98396.53;4912882;29;20210;-58
2022/08/15 06:06:38;;;;;;;6.13;4.00;;;;;;;22.25;93.19;98410.56;4913284;29;20685;-66
2022/08/15 06:09:25;;;;;;;6.47;4.60;;;;;;;22.51;93.34;98405.28;4913151;29;20289;-66
2022/08/15 06:11:55;;;;;;;5.40;3.57;;;;;;;22.47;89.21;98411.13;4913156;29;20211;-66
2022/08/15 06:14:29;;;;;;;5.27;3.50;;;;;;;22.57;87.79;98403.69;4913022;29;20239;-66
2022/08/15 06:17:01;;;;;;;4.70;3.42;;;;;;;22.86;87.71;98396.38;4912696;29;20325;-66
2022/08/15 06:19:37;;;;;;;4.93;3.17;;;;;;;23.06;85.72;98397.09;4913078;29;20259;-67
2022/08/15 06:22:21;;;;;;;4.80;3.35;;;;;;;23.24;83.57;98405.06;4913156;29;20215;-66
2022/08/15 06:24:59;;;;;;;3.78;2.90;;;;;;;23.39;84.10;98401.38;4913161;29;20793;-60
2022/08/15 06:27:34;;;;;;;4.05;2.95;;;;;;;23.76;82.38;98397.09;4912990;29;20210;-59
2022/08/15 06:30:07;;;;;;;5.63;3.42;;;;;;;23.87;80.32;98398.22;4913194;29;20234;-67
2022/08/15 06:32:41;;;;;;;4.13;2.88;;;;;;;24.17;78.22;98393.13;4913485;29;20637;-67
2022/08/15 06:35:20;;;;;;;4.47;3.28;;;;;;;24.51;80.38;98399.66;4912960;29;20286;-67
2022/08/15 06:37:58;;;;;;;4.20;3.00;;;;;;;24.79;79.58;98390.50;4913008;29;20206;-66
2022/08/15 06:40:36;;;;;;;4.10;2.90;;;;;;;24.97;79.43;98395.72;4912947;29;20223;-66
2022/08/15 06:43:03;;;;;;;4.68;3.38;;;;;;;25.12;76.94;98402.38;4912967;29;20200;-59
2022/08/15 06:45:36;;;;;;;4.90;3.20;;;;;;;25.11;75.05;98409.41;4913175;29;20232;-58
2022/08/15 06:48:06;;;;;;;5.45;3.53;;;;;;;24.77;75.17;98403.00;4912766;29;20208;-58
2022/08/15 06:50:39;;;;;;;5.32;3.50;;;;;;;24.86;79.04;98412.13;4913085;29;20402;-67
2022/08/15 06:53:11;;;;;;;6.22;3.70;;;;;;;24.82;77.10;98411.78;4912724;29;20196;-67
2022/08/15 06:55:53;;;;;;;5.47;3.72;;;;;;;24.78;75.08;98422.88;4913049;29;20643;-67
2022/08/15 06:58:33;;;;;;;6.82;4.30;;;;;;;24.73;77.42;98417.53;4912679;29;20374;-59
2022/08/15 07:01:09;;;;;;;6.22;4.57;;;;;;;24.74;76.87;98419.13;4912879;29;20626;-59
2022/08/15 07:03:52;;;;;;;5.47;3.88;;;;;;;24.93;77.21;98415.47;4912568;29;20212;-66
2022/08/15 07:06:36;;;;;;;5.35;3.78;;;;;;;25.02;77.97;98415.97;4912634;29;20346;-66
2022/08/15 07:09:30;;;;;;;6.85;4.00;;;;;;;25.01;74.33;98420.38;4912558;29;20259;-67
2022/08/15 07:12:10;;;;;;;5.38;3.83;;;;;;;25.08;75.17;98421.13;4912692;29;20200;-58
2022/08/15 07:15:06;;;;;;;6.70;4.68;;;;;;;25.24;74.97;98424.94;4912807;29;20224;-58
2022/08/15 07:17:38;;;;;;;5.40;3.90;;;;;;;25.32;76.12;98421.25;4912690;29;20615;-58
2022/08/15 07:20:06;;;;;;;5.60;4.18;;;;;;;25.27;74.45;98421.88;4912687;29;20231;-58
2022/08/15 07:22:33;;;;;;;7.47;4.07;;;;;;;25.41;75.07;98425.13;4912594;29;20212;-66
2022/08/15 07:25:01;;;;;;;5.53;4.05;;;;;;;25.52;74.67;98427.00;4912571;29;20216;-66
2022/08/15 07:27:32;;;;;;;6.55;4.30;;;;;;;25.31;72.66;98424.88;4912619;29;20267;-66
2022/08/15 07:30:02;;;;;;;7.22;4.28;;;;;;;25.38;73.76;98430.81;4914215;29;20220;-65
2022/08/15 07:32:44;;;;;;;7.07;4.53;;;;;;;25.42;74.10;98431.94;4915891;29;20215;-65
2022/08/15 07:35:21;;;;;;;6.88;4.38;;;;;;;25.49;73.11;98431.88;4915809;29;20607;-66
2022/08/15 07:37:56;;;;;;;5.63;4.40;;;;;;;25.60;72.41;98432.91;4915850;29;20208;-66
2022/08/15 07:40:28;;;;;;;5.63;4.07;;;;;;;25.59;71.64;98441.78;4915586;29;20256;-66
2022/08/15 07:42:57;;;;;;;5.95;4.35;;;;;;;25.61;70.16;98445.00;4915830;29;20682;-66
2022/08/15 07:45:30;;;;;;;6.35;4.43;;;;;;;25.45;71.25;98452.47;4915727;29;20738;-66
2022/08/15 07:48:00;;;;;;;5.93;4.30;;;;;;;25.52;71.53;98447.13;4915569;29;20632;-66
2022/08/15 07:50:34;;;;;;;5.65;4.00;;;;;;;25.50;73.79;98446.56;4915750;29;20947;-66
2022/08/15 07:53:06;;;;;;;6.45;4.18;;;;;;;25.56;71.51;98444.88;4915452;29;20302;-66
2022/08/15 07:55:33;;;;;;;6.07;4.60;;;;;;;25.75;74.07;98443.78;4915284;29;20742;-66
2022/08/15 07:58:04;;;;;;;6.28;4.50;;;;;;;25.96;71.51;98447.72;4915268;29;20204;-67
2022/08/15 08:00:35;;;;;;;6.28;4.45;;;;;;;25.97;67.79;98447.47;4915543;29;20343;-66
2022/08/15 08:03:10;;;;;;;5.50;3.92;;;;;;;26.25;69.24;98455.72;4915294;29;20228;-66
2022/08/15 08:05:47;;;;;;;5.82;3.95;;;;;;;26.52;69.68;98456.06;4915216;29;20239;-67
2022/08/15 08:08:14;;;;;;;6.10;4.45;;;;;;;26.70;67.25;98452.50;4915216;29;20214;-66
2022/08/15 08:10:50;;;;;;;5.13;4.18;;;;;;;27.02;68.21;98440.59;4915487;29;20231;-58
2022/08/15 08:13:35;;;;;;;5.80;4.20;;;;;;;27.35;65.37;98454.06;4915073;29;20302;-58
2022/08/15 08:16:07;;;;;;;5.30;4.10;;;;;;;27.51;67.57;98445.41;4915255;29;20252;-58
2022/08/15 08:18:44;;;;;;;5.57;4.15;;;;;;;27.47;62.92;98447.72;4914920;29;20205;-58
2022/08/15 08:21:16;;;;;;;6.28;4.25;;;;;;;27.81;66.09;98455.69;4914956;29;20283;-58
2022/08/15 08:23:47;;;;;;;6.45;4.75;;;;;;;27.79;62.36;98459.56;4914938;29;20204;-58
2022/08/15 08:26:30;;;;;;;7.45;5.10;;;;;;;27.60;60.30;98456.31;4914897;29;20224;-58
2022/08/15 08:29:13;;;;;;;6.82;5.03;;;;;;;27.55;64.21;98451.81;4914994;29;20193;-66
2022/08/15 08:31:50;;;;;;;6.93;4.85;;;;;;;27.49;65.08;98452.75;4914889;29;20200;-67
2022/08/15 08:34:26;;;;;;;9.05;4.55;;;;;;;27.70;63.12;98449.44;4914814;29;20215;-66
2022/08/15 08:36:59;;;;;;;6.53;5.18;;;;;;;27.67;59.50;98447.28;4914843;29;20243;-66
2022/08/15 08:39:40;;;;;;;6.65;4.72;;;;;;;27.84;60.53;98447.31;4914654;29;20216;-58
2022/08/15 08:42:21;;;;;;;6.68;4.97;;;;;;;27.72;59.16;98444.75;4914636;29;20207;-58
2022/08/15 08:45:06;;;;;;;6.00;4.70;;;;;;;27.85;62.49;98440.22;4914485;29;20216;-58
2022/08/15 08:47:49;;;;;;;6.72;4.88;;;;;;;28.08;61.82;98432.19;4914843;29;20215;-58
2022/08/15 08:50:28;;;;;;;6.60;4.97;;;;;;;28.25;60.88;98431.38;4914594;29;20220;-58
2022/08/15 08:53:04;;;;;;;6.55;5.00;;;;;;;28.45;58.40;98421.16;4914727;29;20200;-58
2022/08/15 08:55:47;;;;;;;7.47;5.47;;;;;;;28.73;59.87;98419.38;4914556;29;20227;-58
2022/08/15 08:58:21;;;;;;;7.30;5.25;;;;;;;28.54;59.27;98416.28;4914654;29;20284;-58
2022/08/15 09:00:51;;;;;;;6.57;5.60;;;;;;;28.38;58.15;98420.50;4914257;29;20665;-68
2022/08/15 09:03:21;;;;;;;6.88;5.18;;;;;;;28.41;57.65;98425.25;4914595;29;20200;-67
2022/08/15 09:05:51;;;;;;;7.43;5.07;;;;;;;28.34;57.64;98417.56;4914136;29;20236;-68
2022/08/15 09:08:24;;;;;;;8.68;6.03;;;;;;;28.31;58.08;98415.41;4914128;29;20201;-66
2022/08/15 09:11:04;;;;;;;7.30;5.28;;;;;;;28.32;58.29;98416.22;4914117;29;20242;-66
2022/08/15 09:13:34;;;;;;;6.80;5.03;;;;;;;28.68;58.54;98414.84;4914033;29;20204;-65
2022/08/15 09:16:09;;;;;;;6.85;5.63;;;;;;;29.23;62.24;98405.19;4914354;29;20319;-65
2022/08/15 09:18:43;;;;;;;7.20;5.40;;;;;;;29.29;57.38;98409.47;4913844;29;20203;-66
2022/08/15 09:21:11;;;;;;;8.30;5.00;;;;;;;29.59;51.12;98413.44;4914195;29;20231;-66
2022/08/15 09:23:40;;;;;;;6.30;5.10;;;;;;;29.81;54.01;98411.50;4913915;29;20224;-59
2022/08/15 09:26:14;;;;;;;6.70;4.80;;;;;;;29.96;54.57;98414.28;4913700;29;20231;-58
2022/08/15 09:28:44;;;;;;;5.90;4.43;;;;;;;30.04;51.66;98406.94;4914100;29;20196;-66
2022/08/15 09:31:17;;;;;;;7.35;5.68;;;;;;;30.49;50.98;98416.19;4914020;29;20688;-66
2022/08/15 09:34:19;;;;;;;8.20;5.18;;;;;;;31.01;52.05;98407.41;4913610;29;20202;-66
2022/08/15 09:37:05;;;;;;;6.30;4.85;;;;;;;31.17;51.68;98400.31;4913700;29;20722;-67
2022/08/15 09:39:54;;;;;;;7.13;4.97;;;;;;;31.24;49.47;98406.94;4913405;29;20620;-66
2022/08/15 09:42:40;;;;;;;6.68;5.32;;;;;;;31.48;48.05;98401.16;4913628;29;20206;-66
2022/08/15 09:45:34;;;;;;;5.78;4.72;;;;;;;31.67;49.52;98394.28;4913431;29;20224;-58
2022/08/15 09:48:40;;;;;;;8.13;5.50;;;;;;;31.94;46.97;98395.84;4913514;29;20208;-66
2022/08/15 09:51:21;;;;;;;6.63;5.50;;;;;;;31.33;49.66;98397.44;4913588;29;20231;-66
2022/08/15 09:53:59;;;;;;;6.60;5.10;;;;;;;31.72;47.92;98396.13;4912821;29;20215;-66
2022/08/15 09:56:30;;;;;;;6.63;4.95;;;;;;;32.12;45.83;98397.94;4913312;29;20240;-67
2022/08/15 09:59:05;;;;;;;8.27;5.63;;;;;;;32.66;47.22;98399.88;4913169;29;20232;-67
2022/08/15 10:01:41;;;;;;;6.30;5.10;;;;;;;32.92;46.53;98392.59;4913371;29;20251;-70
2022/08/15 10:04:13;;;;;;;7.03;5.30;;;;;;;33.01;44.81;98392.06;4913190;29;20211;-66
2022/08/15 10:06:57;;;;;;;6.43;5.25;;;;;;;33.08;44.58;98393.34;4913406;29;20208;-58
2022/08/15 10:09:34;;;;;;;6.75;5.05;;;;;;;33.13;42.19;98398.63;4913453;29;20223;-58
2022/08/15 10:12:31;;;;;;;6.50;4.88;;;;;;;32.77;43.82;98394.56;4913241;29;20203;-67
2022/08/15 10:15:06;;;;;;;6.03;4.75;;;;;;;32.79;42.99;98400.38;4913003;29;20698;-58
2022/08/15 10:17:45;;;;;;;6.53;5.00;;;;;;;32.98;42.29;98390.72;4913139;29;20243;-58
2022/08/15 10:20:46;;;;;;;6.50;5.20;;;;;;;33.00;43.24;98407.16;4913589;29;20231;-58
2022/08/15 10:23:15;;;;;;;7.35;5.85;;;;;;;33.05;43.52;98414.31;4911668;29;20236;-58
2022/08/15 10:25:45;;;;;;;6.75;5.25;;;;;;;33.41;42.95;98398.94;4913228;29;20228;-59
2022/08/15 10:28:22;;;;;;;7.10;5.80;;;;;;;32.89;44.00;98397.66;4913154;29;20208;-58
2022/08/15 10:31:21;;;;;;;7.35;5.50;;;;;;;32.87;43.96;98394.50;4913326;29;20231;-67
2022/08/15 10:33:52;;;;;;;7.30;5.30;;;;;;;33.00;43.95;98393.94;4913156;29;20212;-65
2022/08/15 10:36:26;;;;;;;6.72;5.00;;;;;;;32.98;41.36;98390.72;4912878;29;20235;-67
2022/08/15 10:39:12;;;;;;;6.60;4.93;;;;;;;33.28;43.58;98396.91;4912892;29;20208;-67
2022/08/15 10:41:53;;;;;;;6.65;4.90;;;;;;;33.62;43.58;98393.50;4913200;29;20208;-67
2022/08/15 10:44:28;;;;;;;6.18;4.88;;;;;;;33.69;38.94;98392.13;4913110;29;20230;-66
2022/08/15 10:47:06;;;;;;;6.50;4.80;;;;;;;33.19;40.22;98390.63;4912943;29;20227;-67
2022/08/15 10:49:44;;;;;;;6.13;4.93;;;;;;;33.63;41.74;98389.75;4913102;29;20230;-67
2022/08/15 10:52:25;;;;;;;6.82;5.13;;;;;;;33.89;40.95;98392.97;4912931;29;20211;-67
2022/08/15 10:55:15;;;;;;;5.78;4.60;;;;;;;33.81;41.97;98394.38;4913126;29;20224;-58
2022/08/15 10:57:48;;;;;;;5.55;4.53;;;;;;;33.80;39.24;98395.44;4913062;29;20338;-58
2022/08/15 11:00:18;;;;;;;5.72;4.50;;;;;;;33.91;40.63;98388.19;4912882;29;20312;-67
2022/08/15 11:02:49;;;;;;;5.53;4.30;;;;;;;33.53;39.89;98388.78;4913073;29;20215;-67
2022/08/15 11:05:19;;;;;;;6.18;4.72;;;;;;;33.33;40.36;98384.41;4916045;29;20240;-67
2022/08/15 11:07:49;;;;;;;6.50;5.10;;;;;;;32.90;40.32;98386.81;4916644;29;20588;-67
2022/08/15 11:10:20;;;;;;;5.25;4.68;;;;;;;32.85;43.03;98388.69;4916479;29;20618;-67
2022/08/15 11:12:50;;;;;;;5.75;4.75;;;;;;;32.90;40.95;98388.66;4916258;29;20483;-67
2022/08/15 11:15:20;;;;;;;6.05;4.68;;;;;;;32.98;40.18;98382.78;4916446;29;20621;-58
2022/08/15 11:17:52;;;;;;;6.60;5.20;;;;;;;33.47;42.14;98371.31;4916149;29;20232;-67
2022/08/15 11:20:23;;;;;;;7.03;5.03;;;;;;;33.44;40.39;98387.00;4916351;29;20223;-58
2022/08/15 11:22:54;;;;;;;6.32;4.60;;;;;;;33.30;40.36;98381.53;4916329;29;20219;-67
2022/08/15 11:25:26;;;;;;;5.75;3.85;;;;;;;33.20;37.93;98384.28;4916149;29;20736;-58
2022/08/15 11:28:02;;;;;;;4.72;3.80;;;;;;;33.12;39.32;98380.34;4915875;29;20215;-58
2022/08/15 11:30:31;;;;;;;5.18;4.00;;;;;;;33.49;40.43;98374.50;4915736;29;20259;-58
2022/08/15 11:33:19;;;;;;;4.47;3.65;;;;;;;33.54;39.15;98382.44;4916193;29;20209;-58
2022/08/15 11:35:47;;;;;;;4.90;3.72;;;;;;;33.42;39.62;98368.72;4915918;29;20231;-58
2022/08/15 11:38:16;;;;;;;4.25;3.70;;;;;;;33.35;38.81;98369.03;4915904;29;20248;-58
2022/08/15 11:40:52;;;;;;;5.35;4.18;;;;;;;33.35;38.47;98368.25;4915777;29;20275;-58
2022/08/15 11:43:19;;;;;;;3.92;3.25;;;;;;;33.61;37.06;98363.56;4915653;29;20676;-59
2022/08/15 11:45:50;;;;;;;4.45;3.40;;;;;;;33.62;37.17;98361.69;4915512;29;20232;-58
2022/08/15 11:48:23;;;;;;;4.80;3.80;;;;;;;33.33;36.32;98360.56;4915600;29;20208;-58
2022/08/15 11:50:59;;;;;;;5.40;3.97;;;;;;;33.36;39.29;98359.22;4915551;29;20651;-58
2022/08/15 11:53:33;;;;;;;5.97;3.67;;;;;;;33.28;36.61;98362.47;4915332;29;20208;-58
2022/08/15 11:56:01;;;;;;;5.03;3.55;;;;;;;33.16;37.60;98364.69;4915368;29;20720;-58
2022/08/15 11:58:36;;;;;;;5.00;3.55;;;;;;;32.89;36.84;98360.59;4915347;29;20243;-58